Time;durP1;ratioP1;P1;durP2;ratioP2;P2;SDS_P1;SDS_P2;PMS_P1;PMS_P2;Temp;Humidity;BMP_temperature;BMP_pressure;BME280_temperature;BME280_humidity;BME280_pressure;Samples;Min_cycle;Max_cycle;Signal;HPM_P1;HPM_P2
2023/01/26 00:00:01;;;;;;;6.60;4.65;;;;;;;0.50;72.30;97134.63;5134281;27;20552;-63
2023/01/26 00:02:28;;;;;;;6.82;4.35;;;;;;;0.46;72.32;97134.59;5134352;27;20408;-63
2023/01/26 00:04:57;;;;;;;6.72;4.90;;;;;;;0.47;72.72;97141.44;5134307;27;20047;-64
2023/01/26 00:07:24;;;;;;;7.70;4.90;;;;;;;0.45;72.70;97131.13;5134235;27;20491;-65
2023/01/26 00:09:51;;;;;;;6.45;4.65;;;;;;;0.43;72.46;97124.25;5134285;27;20118;-63
2023/01/26 00:12:19;;;;;;;6.65;4.40;;;;;;;0.44;71.96;97124.25;5134166;27;20043;-62
2023/01/26 00:14:53;;;;;;;7.75;4.47;;;;;;;0.43;72.22;97127.69;5134233;27;20047;-63
2023/01/26 00:17:27;;;;;;;8.38;4.85;;;;;;;0.43;71.98;97119.09;5134150;27;20480;-62
2023/01/26 00:19:57;;;;;;;7.45;4.55;;;;;;;0.47;72.78;97120.84;5134007;28;20051;-63
2023/01/26 00:22:26;;;;;;;7.25;4.30;;;;;;;0.42;73.24;97125.09;5134164;28;20514;-64
2023/01/26 00:24:54;;;;;;;5.00;3.53;;;;;;;0.42;74.24;97130.25;5134085;28;20415;-65
2023/01/26 00:27:21;;;;;;;4.68;3.50;;;;;;;0.46;74.05;97127.72;5134083;28;20488;-63
2023/01/26 00:29:48;;;;;;;6.00;4.40;;;;;;;0.49;73.83;97125.16;5134032;28;20054;-62
2023/01/26 00:32:16;;;;;;;11.05;6.70;;;;;;;0.53;73.70;97135.50;5133840;28;20134;-66
2023/01/26 00:34:43;;;;;;;6.25;4.50;;;;;;;0.50;74.38;97139.78;5134020;28;20485;-64
2023/01/26 00:37:11;;;;;;;6.30;4.53;;;;;;;0.47;74.46;97136.31;5133830;28;20051;-65
2023/01/26 00:39:39;;;;;;;5.80;4.18;;;;;;;0.48;74.57;97128.59;5133932;28;20039;-64
2023/01/26 00:42:12;;;;;;;5.57;4.15;;;;;;;0.49;74.54;97124.31;5133822;28;20058;-63
2023/01/26 00:44:42;;;;;;;7.18;4.25;;;;;;;0.50;74.45;97126.03;5133845;28;20057;-62
2023/01/26 00:47:11;;;;;;;7.63;4.50;;;;;;;0.49;74.21;97116.59;5133873;28;20425;-63
2023/01/26 00:49:39;;;;;;;7.97;4.78;;;;;;;0.52;74.19;97118.34;5133763;28;20500;-62
2023/01/26 00:52:06;;;;;;;8.98;5.47;;;;;;;0.55;73.99;97108.94;5133743;28;20047;-64
2023/01/26 00:54:35;;;;;;;7.00;4.93;;;;;;;0.58;73.63;97106.41;5133793;28;20043;-66
2023/01/26 00:57:03;;;;;;;9.07;5.50;;;;;;;0.58;73.50;97101.25;5133786;28;20396;-63
2023/01/26 00:59:31;;;;;;;8.90;6.00;;;;;;;0.60;73.43;97101.28;5133704;28;20484;-62
2023/01/26 01:01:58;;;;;;;9.57;5.40;;;;;;;0.62;73.09;97094.41;5133565;28;20047;-64
2023/01/26 01:04:26;;;;;;;7.72;5.03;;;;;;;0.61;73.28;97088.38;5133761;28;20047;-64
2023/01/26 01:06:53;;;;;;;6.53;4.90;;;;;;;0.61;73.20;97080.66;5135358;27;20047;-64
2023/01/26 01:09:20;;;;;;;6.80;4.70;;;;;;;0.63;73.07;97080.69;5137546;27;20047;-63
2023/01/26 01:11:49;;;;;;;8.40;4.55;;;;;;;0.50;73.46;97072.84;5137690;27;20047;-62
2023/01/26 01:14:18;;;;;;;6.25;4.40;;;;;;;0.41;73.72;97064.13;5137488;27;20135;-63
2023/01/26 01:16:46;;;;;;;8.43;4.85;;;;;;;0.37;74.14;97069.25;5137421;27;20468;-63
2023/01/26 01:19:15;;;;;;;9.10;4.82;;;;;;;0.35;73.78;97068.38;5136931;27;20381;-62
2023/01/26 01:21:42;;;;;;;6.50;4.43;;;;;;;0.35;73.09;97067.50;5137139;27;20055;-64
2023/01/26 01:24:09;;;;;;;6.55;4.55;;;;;;;0.35;73.30;97049.50;5137249;27;20055;-62
2023/01/26 01:26:36;;;;;;;6.72;4.50;;;;;;;0.37;74.23;97048.66;5137194;27;20047;-63
2023/01/26 01:29:06;;;;;;;6.38;4.63;;;;;;;0.40;74.50;97047.84;5137090;27;20416;-64
2023/01/26 01:31:33;;;;;;;8.75;4.72;;;;;;;0.43;74.91;97045.31;5137042;27;20054;-64
2023/01/26 01:34:01;;;;;;;5.82;4.00;;;;;;;0.40;74.89;97054.69;5137068;27;20070;-63
2023/01/26 01:36:30;;;;;;;8.38;5.07;;;;;;;0.40;74.90;97047.84;5137116;27;20069;-65
2023/01/26 01:38:57;;;;;;;8.13;4.95;;;;;;;0.39;75.33;97046.09;5137037;27;20499;-63
2023/01/26 01:41:25;;;;;;;6.85;4.72;;;;;;;0.41;74.88;97038.41;5136869;27;20050;-64
2023/01/26 01:44:14;;;;;;;6.68;4.10;;;;;;;0.44;74.65;97051.31;5136818;27;20047;-65
2023/01/26 01:46:45;;;;;;;6.95;4.43;;;;;;;0.45;74.38;97053.06;5136799;27;20449;-61
2023/01/26 01:49:19;;;;;;;7.50;4.60;;;;;;;0.28;73.75;97047.69;5136691;27;20143;-65
2023/01/26 01:51:53;;;;;;;6.10;4.43;;;;;;;0.40;73.42;97053.00;5136723;27;20046;-64
2023/01/26 01:54:25;;;;;;;7.05;4.78;;;;;;;0.37;73.67;97055.53;5136760;27;20090;-62
2023/01/26 01:56:56;;;;;;;6.38;4.68;;;;;;;0.40;73.52;97050.41;5136668;27;20051;-64
2023/01/26 01:59:25;;;;;;;5.68;3.95;;;;;;;0.40;73.97;97049.53;5136618;27;20047;-65
2023/01/26 02:01:53;;;;;;;6.78;4.97;;;;;;;0.41;73.92;97049.56;5136392;27;20595;-65
2023/01/26 02:04:22;;;;;;;7.07;4.95;;;;;;;0.45;73.85;97037.59;5136414;27;21305;-64
2023/01/26 02:06:52;;;;;;;7.15;4.82;;;;;;;0.46;73.96;97037.63;5136405;27;20043;-64
2023/01/26 02:12:14;;;;;;;7.75;4.43;;;;;;;0.49;73.85;97040.19;5136493;27;20499;-65
2023/01/26 02:14:42;;;;;;;;;;;;;;;0.46;74.08;97041.91;5136777;27;20043;-63
2023/01/26 02:17:09;;;;;;;7.82;5.00;;;;;;;0.40;74.74;97047.84;5136072;27;19923;-62
2023/01/26 02:19:49;;;;;;;6.15;4.50;;;;;;;0.44;75.21;97043.56;5135943;27;20108;-63
2023/01/26 02:22:23;;;;;;;6.50;4.70;;;;;;;0.50;74.72;97044.53;5136236;27;20393;-64
2023/01/26 02:24:52;;;;;;;7.65;4.60;;;;;;;0.54;74.72;97032.53;5136119;27;20336;-62
2023/01/26 02:27:21;;;;;;;6.38;4.50;;;;;;;0.58;74.79;97036.88;5135944;27;20047;-62
2023/01/26 02:29:49;;;;;;;6.10;4.70;;;;;;;0.59;74.67;97025.72;5135980;27;20194;-62
2023/01/26 02:32:16;;;;;;;6.43;4.13;;;;;;;0.62;74.29;97027.44;5135881;27;20051;-62
2023/01/26 02:34:43;;;;;;;7.95;5.53;;;;;;;0.62;74.24;97022.31;5135974;27;20055;-62
2023/01/26 02:37:13;;;;;;;8.63;5.63;;;;;;;0.60;74.05;97024.88;5135812;27;20549;-63
2023/01/26 02:39:47;;;;;;;8.98;5.50;;;;;;;0.62;73.59;97012.00;5135938;27;20059;-64
2023/01/26 02:45:00;;;;;;;7.00;4.82;;;;;;;0.62;73.82;97019.72;5135729;27;20149;-64
2023/01/26 02:47:27;;;;;;;6.68;4.35;;;;;;;0.61;74.12;97018.84;5135650;27;20047;-64
2023/01/26 02:49:53;;;;;;;6.50;4.30;;;;;;;0.57;73.61;97014.53;5135484;27;20065;-63
2023/01/26 02:52:24;;;;;;;6.47;4.38;;;;;;;0.53;73.52;97022.22;5135450;27;20412;-62
2023/01/26 02:57:36;;;;;;;5.15;3.65;;;;;;;0.50;73.75;97013.63;5135593;27;20431;-63
2023/01/26 03:00:09;;;;;;;7.13;4.40;;;;;;;0.56;73.90;97011.94;5135465;27;20054;-65
2023/01/26 03:02:36;;;;;;;7.22;5.00;;;;;;;0.56;73.93;97006.78;5135322;27;20107;-63
2023/01/26 03:05:04;;;;;;;6.18;4.20;;;;;;;0.54;74.04;97003.34;5135390;27;20047;-63
2023/01/26 03:07:31;;;;;;;6.93;4.63;;;;;;;0.56;74.73;96999.06;5135207;27;20051;-64
2023/01/26 03:09:58;;;;;;;14.88;4.75;;;;;;;0.54;74.61;96996.47;5135209;27;20050;-65
2023/01/26 03:12:25;;;;;;;7.05;4.03;;;;;;;0.56;74.53;96993.91;5135131;27;20043;-64
2023/01/26 03:15:33;;;;;;;7.13;4.15;;;;;;;0.55;74.31;96995.66;5135018;27;20074;-64
2023/01/26 03:17:45;;;;;;;5.63;4.28;;;;;;;0.51;74.41;96983.56;5134942;27;20471;-64
2023/01/26 03:28:27;;;;;;;8.73;4.88;;;;;;;0.37;75.90;96968.84;5134885;27;20416;-64
2023/01/26 03:30:57;;;;;;;6.50;4.05;;;;;;;0.40;75.75;96978.34;5134452;27;20086;-64
2023/01/26 03:33:26;;;;;;;5.38;4.15;;;;;;;0.29;76.60;96982.50;5134811;27;20147;-61
2023/01/26 03:35:54;;;;;;;6.53;4.13;;;;;;;0.27;76.85;96977.34;5134678;27;20051;-62
2023/01/26 03:38:22;;;;;;;7.28;4.57;;;;;;;0.32;76.85;96978.25;5134686;27;20047;-65
2023/01/26 03:57:21;;;;;;;5.80;4.07;;;;;;;0.41;76.75;96962.03;5134541;27;20510;-64
2023/01/26 03:59:48;;;;;;;4.75;3.92;;;;;;;0.42;76.45;96952.63;5134426;27;20069;-65
2023/01/26 04:10:30;;;;;;;5.75;4.05;;;;;;;0.19;74.12;96942.97;5134326;27;20423;-63
2023/01/26 04:21:26;;;;;;;6.28;4.50;;;;;;;0.13;74.21;96925.75;5133881;28;20146;-63
2023/01/26 04:23:55;;;;;;;6.90;4.65;;;;;;;0.08;73.89;96930.84;5133981;28;20047;-63
2023/01/26 04:26:22;;;;;;;6.60;4.35;;;;;;;0.11;74.26;96930.88;5134134;28;20465;-62
2023/01/26 04:28:50;;;;;;;5.85;4.07;;;;;;;0.07;73.42;96920.53;5133933;28;20047;-62
2023/01/26 04:31:18;;;;;;;6.63;4.95;;;;;;;0.06;73.28;96913.69;5133946;28;20039;-62
2023/01/26 04:33:45;;;;;;;6.68;4.85;;;;;;;0.01;73.27;96911.06;5133916;28;20126;-63
2023/01/26 04:36:14;;;;;;;12.90;4.57;;;;;;;0.01;73.55;96905.03;5133919;28;20050;-65
2023/01/26 04:38:41;;;;;;;7.07;4.63;;;;;;;0.01;73.90;96897.31;5134013;28;20054;-61
2023/01/26 04:41:08;;;;;;;7.97;4.72;;;;;;;0.01;73.94;96898.19;5134358;27;20043;-62
2023/01/26 04:43:35;;;;;;;6.63;4.40;;;;;;;-0.07;74.27;96902.38;5137890;27;20051;-64
2023/01/26 04:46:05;;;;;;;6.00;4.10;;;;;;;-0.17;74.93;96891.16;5137942;27;20047;-65
2023/01/26 04:48:33;;;;;;;7.28;4.18;;;;;;;-0.08;75.23;96895.53;5137965;27;20050;-65
2023/01/26 04:51:02;;;;;;;5.63;4.00;;;;;;;0.02;74.91;96896.47;5137879;27;20046;-62
2023/01/26 04:53:32;;;;;;;6.70;4.47;;;;;;;0.00;75.16;96893.91;5137821;27;20043;-65
2023/01/26 04:55:59;;;;;;;6.03;4.10;;;;;;;-0.05;75.87;96887.84;5137731;27;20130;-64
2023/01/26 04:58:27;;;;;;;6.63;4.50;;;;;;;-0.01;75.63;96894.72;5137772;27;20086;-63
2023/01/26 05:00:55;;;;;;;6.80;4.18;;;;;;;-0.01;75.67;96900.75;5137711;27;20050;-64
2023/01/26 05:03:23;;;;;;;6.78;5.05;;;;;;;0.05;75.20;96906.78;5137519;27;20047;-63
2023/01/26 05:05:52;;;;;;;6.68;4.65;;;;;;;0.04;75.24;96905.94;5137615;27;20095;-62
2023/01/26 05:08:21;;;;;;;6.97;4.00;;;;;;;0.07;75.70;96903.41;5137682;27;20043;-62
2023/01/26 05:10:50;;;;;;;5.70;4.00;;;;;;;0.19;76.21;96907.81;5137612;27;20043;-63
2023/01/26 05:13:17;;;;;;;6.63;4.30;;;;;;;0.23;76.33;96898.38;5137586;27;20054;-65
2023/01/26 05:15:45;;;;;;;5.53;3.97;;;;;;;0.30;76.17;96894.16;5137482;27;20137;-65
2023/01/26 05:18:13;;;;;;;7.28;4.75;;;;;;;0.37;76.14;96886.47;5137327;27;20074;-63
2023/01/26 05:20:40;;;;;;;8.85;5.07;;;;;;;0.41;76.39;96879.66;5137055;27;20804;-64
2023/01/26 05:23:07;;;;;;;8.70;5.05;;;;;;;0.41;75.96;96878.78;5137221;27;20058;-65
2023/01/26 05:25:34;;;;;;;6.43;4.65;;;;;;;0.43;75.32;96877.97;5137186;27;20046;-65
2023/01/26 05:28:03;;;;;;;7.03;4.13;;;;;;;0.47;74.69;96882.28;5137200;27;20078;-65
2023/01/26 05:30:30;;;;;;;7.15;4.00;;;;;;;0.54;75.13;96883.19;5137230;27;20064;-65
2023/01/26 05:33:01;;;;;;;4.10;3.53;;;;;;;0.60;74.97;96887.53;5137081;27;20047;-62
2023/01/26 05:35:29;;;;;;;5.22;3.88;;;;;;;0.63;74.91;96895.25;5136975;27;20051;-65
2023/01/26 05:37:56;;;;;;;5.63;4.07;;;;;;;0.67;74.79;96884.16;5136971;27;20043;-61
2023/01/26 05:40:23;;;;;;;5.18;3.75;;;;;;;0.71;75.10;96878.16;5136829;27;20539;-65
2023/01/26 05:42:50;;;;;;;88.07;42.08;;;;;;;0.67;74.55;96875.56;5136846;27;20176;-64
2023/01/26 05:45:19;;;;;;;13.52;8.48;;;;;;;0.62;75.14;96880.66;5136937;27;20047;-62
2023/01/26 05:47:48;;;;;;;6.72;4.47;;;;;;;0.55;75.30;96882.34;5136778;27;20043;-65
2023/01/26 05:50:16;;;;;;;5.55;4.18;;;;;;;0.53;76.06;96880.59;5136742;27;20039;-65
2023/01/26 05:52:45;;;;;;;4.90;3.25;;;;;;;0.59;74.45;96885.78;5136199;27;20109;-64
2023/01/26 05:55:13;;;;;;;5.70;3.85;;;;;;;0.57;73.88;96884.94;5136635;27;20485;-64
2023/01/26 05:57:40;;;;;;;4.45;3.63;;;;;;;0.58;72.57;96878.94;5136591;27;20487;-62
2023/01/26 06:00:10;;;;;;;6.45;4.07;;;;;;;0.53;72.25;96873.75;5136471;27;20565;-64
2023/01/26 06:02:41;;;;;;;3.87;3.37;;;;;;;0.55;72.70;96869.47;5136405;27;20092;-63
2023/01/26 06:05:09;;;;;;;4.93;3.72;;;;;;;0.56;72.13;96870.31;5136416;27;20193;-62
2023/01/26 06:07:37;;;;;;;5.97;4.05;;;;;;;0.53;72.32;96866.00;5136426;27;20126;-65
2023/01/26 06:10:05;;;;;;;5.05;3.13;;;;;;;0.50;72.83;96860.84;5136372;27;20043;-61
2023/01/26 06:12:34;;;;;;;5.35;3.88;;;;;;;0.51;72.33;96862.56;5136351;27;20475;-63
2023/01/26 06:15:02;;;;;;;6.80;4.45;;;;;;;0.53;72.24;96857.41;5136297;27;20043;-61
2023/01/26 06:17:30;;;;;;;4.80;3.47;;;;;;;0.54;72.75;96860.00;5136165;27;20043;-63
2023/01/26 06:19:59;;;;;;;5.82;3.90;;;;;;;0.54;72.27;96861.75;5135956;27;20054;-65
2023/01/26 06:22:26;;;;;;;4.70;3.70;;;;;;;0.49;72.41;96865.13;5136081;27;20054;-62
2023/01/26 06:24:53;;;;;;;6.55;4.35;;;;;;;0.52;72.59;96871.16;5136147;27;20079;-62
2023/01/26 06:27:21;;;;;;;6.90;4.40;;;;;;;0.45;72.15;96865.09;5136084;27;20049;-63
2023/01/26 06:29:48;;;;;;;7.32;4.95;;;;;;;0.41;72.35;96866.78;5136195;27;20481;-65
2023/01/26 06:32:16;;;;;;;6.10;4.10;;;;;;;0.37;72.29;96865.88;5135980;27;20134;-62
2023/01/26 06:34:45;;;;;;;5.88;4.30;;;;;;;0.37;72.95;96865.88;5135850;27;20101;-62
2023/01/26 06:37:15;;;;;;;7.25;4.65;;;;;;;0.31;72.42;96865.88;5135894;27;20050;-62
2023/01/26 06:39:47;;;;;;;6.22;4.80;;;;;;;0.36;72.52;96876.19;5135801;27;20047;-66
2023/01/26 06:42:18;;;;;;;7.97;4.47;;;;;;;0.42;72.09;96883.09;5135683;27;20043;-63
2023/01/26 06:44:49;;;;;;;6.60;4.75;;;;;;;0.46;71.68;96878.00;5135758;27;20043;-62
2023/01/26 06:47:16;;;;;;;5.93;4.72;;;;;;;0.49;71.50;96880.56;5135668;27;20097;-62
2023/01/26 06:49:44;;;;;;;7.10;4.55;;;;;;;0.55;71.36;96887.50;5135431;27;20043;-63
2023/01/26 06:52:31;;;;;;;6.60;4.32;;;;;;;0.62;71.14;96893.53;5135499;27;20604;-62
2023/01/26 06:55:00;;;;;;;7.78;4.90;;;;;;;0.68;71.98;96882.41;5135545;27;20138;-62
2023/01/26 06:57:27;;;;;;;5.57;4.30;;;;;;;0.70;71.79;96884.16;5135505;27;20068;-65
2023/01/26 06:59:56;;;;;;;8.98;5.22;;;;;;;0.76;71.61;96880.78;5135426;27;20043;-63
2023/01/26 07:02:24;;;;;;;6.28;4.57;;;;;;;0.78;71.75;96881.63;5135309;27;20050;-63
2023/01/26 07:04:53;;;;;;;5.32;4.00;;;;;;;0.83;71.10;96873.94;5134388;27;20079;-62
2023/01/26 07:07:20;;;;;;;6.32;4.32;;;;;;;0.77;71.39;96872.19;5135136;27;20412;-62
2023/01/26 07:09:49;;;;;;;5.75;4.35;;;;;;;0.73;71.50;96863.56;5135171;27;20043;-65
2023/01/26 07:12:16;;;;;;;7.68;5.05;;;;;;;0.81;71.52;96863.63;5135118;27;20043;-64
2023/01/26 07:14:45;;;;;;;6.75;4.28;;;;;;;0.87;71.69;96863.66;5135104;27;20093;-66
2023/01/26 07:17:13;;;;;;;5.80;4.07;;;;;;;0.92;71.61;96860.22;5135034;27;20126;-64
2023/01/26 07:19:40;;;;;;;6.97;4.85;;;;;;;0.82;71.44;96859.34;5134676;27;20488;-65
2023/01/26 07:22:07;;;;;;;7.93;4.57;;;;;;;0.76;71.49;96855.00;5134939;27;20516;-61
2023/01/26 07:24:35;;;;;;;7.65;4.88;;;;;;;0.82;71.39;96852.47;5134877;27;20099;-63
2023/01/26 07:27:04;;;;;;;6.55;4.57;;;;;;;0.82;71.66;96851.59;5134893;27;20050;-65
2023/01/26 07:29:31;;;;;;;5.72;4.30;;;;;;;0.83;71.75;96841.31;5134852;27;20047;-64
2023/01/26 07:31:58;;;;;;;7.63;5.15;;;;;;;0.83;71.80;96841.31;5134790;27;20043;-63
2023/01/26 07:34:25;;;;;;;7.13;5.03;;;;;;;0.86;71.69;96840.47;5134694;27;20108;-62
2023/01/26 07:36:53;;;;;;;7.15;5.10;;;;;;;0.86;71.49;96843.03;5134629;27;20133;-64
2023/01/26 07:39:20;;;;;;;8.73;5.85;;;;;;;0.90;71.59;96837.03;5134621;27;20042;-63
2023/01/26 07:41:49;;;;;;;8.60;6.00;;;;;;;0.97;71.21;96835.38;5134575;27;20385;-63
2023/01/26 07:44:18;;;;;;;7.88;5.43;;;;;;;0.97;71.36;96831.06;5134468;27;20051;-60
2023/01/26 07:46:45;;;;;;;6.88;4.70;;;;;;;0.99;71.70;96826.78;5134550;27;20047;-64
2023/01/26 07:49:12;;;;;;;5.20;4.18;;;;;;;0.91;70.75;96823.31;5134440;27;20552;-63
2023/01/26 07:51:41;;;;;;;7.43;4.45;;;;;;;0.86;71.07;96819.84;5134387;27;20053;-65
2023/01/26 07:54:12;;;;;;;6.03;3.90;;;;;;;0.72;71.89;96807.75;5134380;27;20400;-65
2023/01/26 07:56:42;;;;;;;6.43;4.43;;;;;;;0.78;72.40;96803.50;5134298;27;20055;-64
2023/01/26 07:59:14;;;;;;;8.40;4.30;;;;;;;0.69;72.10;96804.31;5134390;27;20057;-62
2023/01/26 08:01:43;;;;;;;5.75;3.95;;;;;;;0.66;72.78;96805.16;5134393;27;20051;-63
2023/01/26 08:04:12;;;;;;;6.40;4.45;;;;;;;0.71;73.07;96800.03;5134101;27;20055;-65
2023/01/26 08:06:39;;;;;;;6.25;4.30;;;;;;;0.60;73.30;96797.41;5134312;27;20116;-62
2023/01/26 08:09:07;;;;;;;6.25;4.72;;;;;;;0.68;73.97;96792.28;5134084;27;20477;-63
2023/01/26 08:11:35;;;;;;;5.55;4.15;;;;;;;0.71;73.91;96793.16;5134185;27;20051;-62
2023/01/26 08:14:07;;;;;;;7.03;5.28;;;;;;;0.72;73.80;96779.44;5134193;27;20104;-61
2023/01/26 08:16:35;;;;;;;7.50;5.05;;;;;;;0.80;73.83;96784.63;5133854;27;20047;-62
2023/01/26 08:19:05;;;;;;;8.55;4.43;;;;;;;0.87;74.08;96781.22;5134048;27;20047;-63
2023/01/26 08:21:33;;;;;;;9.73;5.05;;;;;;;0.97;73.53;96774.38;5133697;28;20081;-61
2023/01/26 08:24:05;;;;;;;6.32;4.38;;;;;;;1.05;73.40;96774.41;5133895;28;20067;-65
2023/01/26 08:26:33;;;;;;;12.25;4.35;;;;;;;1.14;73.31;96781.31;5133892;28;20043;-62
2023/01/26 08:29:00;;;;;;;5.63;3.85;;;;;;;1.08;73.42;96781.31;5133969;28;20484;-64
2023/01/26 08:31:31;;;;;;;5.45;3.72;;;;;;;1.07;73.67;96792.44;5133991;28;20039;-63
2023/01/26 08:33:58;;;;;;;;;;;;;;;1.08;73.51;96799.34;5134359;28;20047;-64
2023/01/26 08:36:27;;;;;;;4.82;3.92;;;;;;;1.08;73.56;96804.50;5133911;28;19919;-63
2023/01/26 08:38:54;;;;;;;5.10;4.00;;;;;;;1.19;73.48;96807.09;5133879;28;20051;-64
2023/01/26 08:41:22;;;;;;;4.60;3.28;;;;;;;1.24;72.98;96811.41;5133881;28;20051;-64
2023/01/26 08:43:51;;;;;;;5.60;3.72;;;;;;;1.23;72.64;96814.84;5133792;28;20055;-64
2023/01/26 08:46:19;;;;;;;5.72;3.78;;;;;;;1.21;72.49;96801.09;5133896;28;20043;-62
2023/01/26 08:48:48;;;;;;;13.63;3.83;;;;;;;1.24;72.84;96795.94;5133725;28;20484;-62
2023/01/26 08:51:16;;;;;;;6.68;3.65;;;;;;;1.18;73.37;96790.78;5133830;28;20046;-62
2023/01/26 08:53:45;;;;;;;5.10;3.60;;;;;;;1.09;74.32;96790.75;5133754;28;20100;-65
2023/01/26 08:56:13;;;;;;;5.70;3.60;;;;;;;1.11;74.57;96789.91;5133661;28;20066;-62
2023/01/26 08:58:40;;;;;;;5.55;3.70;;;;;;;1.08;74.77;96786.47;5133790;28;20051;-63
2023/01/26 09:01:08;;;;;;;6.00;3.67;;;;;;;1.08;74.90;96771.84;5133768;28;20054;-65
2023/01/26 09:03:36;;;;;;;4.32;3.13;;;;;;;1.13;75.69;96779.59;5133619;28;20061;-62
2023/01/26 09:06:06;;;;;;;4.80;3.33;;;;;;;1.07;75.59;96780.44;5133720;28;20043;-61
2023/01/26 09:08:33;;;;;;;4.22;3.05;;;;;;;1.08;76.12;96777.00;5133657;28;20047;-62
2023/01/26 09:11:02;;;;;;;4.78;3.35;;;;;;;1.06;76.50;96772.69;5133631;28;20051;-62
2023/01/26 09:13:30;;;;;;;4.25;3.45;;;;;;;1.02;77.30;96773.56;5133927;28;20059;-64
2023/01/26 09:15:57;;;;;;;5.95;3.70;;;;;;;0.97;77.61;96771.78;5133543;28;20116;-63
2023/01/26 09:18:26;;;;;;;5.18;3.35;;;;;;;1.08;77.97;96768.44;5133585;28;20054;-62
2023/01/26 09:20:54;;;;;;;4.95;3.58;;;;;;;1.12;78.10;96760.69;5133161;28;20058;-60
2023/01/26 09:23:22;;;;;;;6.50;3.97;;;;;;;1.12;78.66;96752.13;5133318;28;20079;-62
2023/01/26 09:25:53;;;;;;;8.77;4.13;;;;;;;1.07;79.22;96749.53;5133470;28;20039;-63
2023/01/26 09:28:22;;;;;;;5.97;4.25;;;;;;;1.03;79.64;96734.03;5135786;27;20407;-62
2023/01/26 09:30:49;;;;;;;6.82;3.97;;;;;;;0.96;80.08;96728.03;5137130;27;20047;-65
2023/01/26 09:33:16;;;;;;;6.35;4.10;;;;;;;0.89;80.73;96721.97;5137118;27;20404;-64
2023/01/26 09:35:44;;;;;;;6.18;4.07;;;;;;;0.89;81.06;96716.81;5137092;27;20096;-61
2023/01/26 09:38:11;;;;;;;4.82;3.95;;;;;;;0.84;81.34;96706.50;5137073;27;20572;-61
2023/01/26 09:40:46;;;;;;;7.60;4.28;;;;;;;0.79;82.04;96705.63;5136792;27;20458;-62
2023/01/26 09:43:26;;;;;;;6.32;3.92;;;;;;;0.87;82.16;96701.34;5137062;27;20099;-63
2023/01/26 09:46:01;;;;;;;7.05;4.25;;;;;;;0.85;81.80;96697.06;5136855;27;20515;-64
2023/01/26 09:48:38;;;;;;;5.53;4.13;;;;;;;0.80;82.53;96691.91;5136900;27;20134;-60
2023/01/26 09:51:11;;;;;;;6.53;4.20;;;;;;;0.81;82.53;96692.75;5136712;27;20047;-62
2023/01/26 09:53:46;;;;;;;6.60;4.03;;;;;;;0.77;83.04;96686.72;5136698;27;20043;-62
2023/01/26 09:56:18;;;;;;;6.95;4.18;;;;;;;0.80;83.09;96685.88;5136678;27;20147;-64
2023/01/26 09:58:54;;;;;;;7.32;4.32;;;;;;;0.81;82.88;96683.31;5136739;27;20123;-62
2023/01/26 10:01:26;;;;;;;6.05;4.43;;;;;;;0.81;82.95;96675.56;5136587;27;20047;-63
2023/01/26 10:04:02;;;;;;;6.03;4.47;;;;;;;0.89;83.07;96673.03;5136466;27;20043;-64
2023/01/26 10:06:31;;;;;;;6.97;4.00;;;;;;;0.96;82.67;96666.19;5136502;27;20496;-64
2023/01/26 10:09:03;;;;;;;6.65;4.60;;;;;;;0.94;82.28;96660.16;5136437;27;20145;-64
2023/01/26 10:11:37;;;;;;;11.30;4.13;;;;;;;0.95;82.88;96655.00;5136413;27;20583;-62
2023/01/26 10:14:13;;;;;;;6.15;4.85;;;;;;;1.07;83.65;96656.75;5136221;27;20050;-64
2023/01/26 10:16:43;;;;;;;5.93;4.43;;;;;;;1.21;82.55;96646.44;5136304;27;20059;-64
2023/01/26 10:19:17;;;;;;;6.40;4.28;;;;;;;1.24;82.42;96654.19;5136312;27;20051;-64
2023/01/26 10:21:49;;;;;;;11.65;5.15;;;;;;;1.32;81.47;96643.88;5136034;27;20523;-62
2023/01/26 10:24:21;;;;;;;7.10;4.85;;;;;;;1.38;81.69;96643.00;5136073;27;20043;-63
2023/01/26 10:26:51;;;;;;;6.38;4.30;;;;;;;1.36;82.29;96637.84;5136213;27;20043;-64
2023/01/26 10:29:20;;;;;;;4.68;3.35;;;;;;;1.33;81.71;96632.72;5136300;27;20100;-64
2023/01/26 10:31:47;;;;;;;7.35;5.10;;;;;;;1.34;82.11;96618.09;5136023;27;20040;-63
2023/01/26 10:34:16;;;;;;;5.25;4.07;;;;;;;1.36;82.50;96608.66;5135930;27;20401;-62
2023/01/26 10:36:46;;;;;;;4.60;3.70;;;;;;;1.32;83.25;96602.63;5135706;27;20047;-64
2023/01/26 10:39:15;;;;;;;6.28;4.13;;;;;;;1.33;83.28;96586.31;5135756;27;20047;-64
2023/01/26 10:41:57;;;;;;;5.93;4.28;;;;;;;1.42;83.53;96585.47;5135767;27;20058;-63
2023/01/26 10:44:33;;;;;;;6.35;4.45;;;;;;;1.35;83.52;96568.25;5135624;27;20047;-63
2023/01/26 10:47:07;;;;;;;6.97;4.15;;;;;;;1.35;84.62;96565.69;5135609;27;20043;-62
2023/01/26 10:49:35;;;;;;;6.50;4.53;;;;;;;1.20;83.62;96561.41;5135634;27;20043;-64
2023/01/26 10:52:07;;;;;;;6.35;4.70;;;;;;;1.23;84.88;96563.97;5135511;27;20492;-62
2023/01/26 10:54:35;;;;;;;6.30;4.47;;;;;;;1.24;85.03;96563.13;5135467;27;20068;-62
2023/01/26 10:57:06;;;;;;;5.40;3.88;;;;;;;1.31;85.16;96563.97;5135476;27;20381;-62
2023/01/26 10:59:39;;;;;;;6.15;4.47;;;;;;;1.35;85.21;96568.25;5135365;27;20126;-63
2023/01/26 11:02:22;;;;;;;6.60;4.53;;;;;;;1.33;84.97;96542.50;5135380;27;20134;-63
2023/01/26 11:05:15;;;;;;;6.55;4.72;;;;;;;1.32;85.36;96547.66;5135409;27;20050;-62
2023/01/26 11:07:45;;;;;;;7.13;4.47;;;;;;;1.26;84.84;96526.16;5124371;27;20099;-63
2023/01/26 11:10:22;;;;;;;5.70;4.25;;;;;;;1.26;85.84;96526.16;5135300;27;20079;-64
2023/01/26 11:12:50;;;;;;;11.18;5.22;;;;;;;1.22;86.13;96524.47;5135171;27;20393;-64
2023/01/26 11:15:20;;;;;;;6.25;4.80;;;;;;;1.18;86.57;96517.59;5135209;27;20047;-64
2023/01/26 11:18:01;;;;;;;7.68;5.30;;;;;;;1.11;87.01;96508.13;5135098;27;20082;-62
2023/01/26 11:20:47;;;;;;;6.03;4.93;;;;;;;1.15;86.91;96512.44;5134716;27;20126;-61
2023/01/26 11:23:32;;;;;;;7.50;5.40;;;;;;;1.13;87.43;96511.59;5134928;27;20058;-64
2023/01/26 11:26:26;;;;;;;7.22;5.40;;;;;;;1.10;87.75;96509.88;5134976;27;20084;-64
2023/01/26 11:29:10;;;;;;;9.00;5.65;;;;;;;1.12;87.92;96513.28;5134903;27;20053;-63
2023/01/26 11:31:50;;;;;;;7.90;5.68;;;;;;;1.19;87.61;96519.31;5134959;27;20039;-62
2023/01/26 11:34:29;;;;;;;8.80;6.05;;;;;;;1.25;87.36;96515.88;5134819;27;20073;-64
2023/01/26 11:37:18;;;;;;;9.57;6.38;;;;;;;1.28;87.48;96512.41;5134723;27;20051;-62
2023/01/26 11:39:53;;;;;;;9.85;6.25;;;;;;;1.32;87.58;96521.88;5134565;27;20051;-63
2023/01/26 11:42:32;;;;;;;9.77;6.43;;;;;;;1.44;87.45;96513.28;5134609;27;20049;-61
2023/01/26 11:45:18;;;;;;;7.93;6.18;;;;;;;1.50;86.81;96513.22;5134553;27;20057;-63
2023/01/26 11:48:01;;;;;;;8.48;6.22;;;;;;;1.58;86.28;96510.63;5134500;27;20047;-63
2023/01/26 11:50:37;;;;;;;7.90;5.88;;;;;;;1.53;85.81;96510.66;5134227;27;20047;-62
2023/01/26 11:53:25;;;;;;;7.90;6.00;;;;;;;1.58;86.07;96497.75;5134392;27;20126;-63
2023/01/26 11:56:05;;;;;;;11.32;5.80;;;;;;;1.58;85.99;96490.00;5134317;27;20104;-63
2023/01/26 11:58:37;;;;;;;7.00;5.00;;;;;;;1.55;86.03;96490.00;5134407;27;20043;-62
2023/01/26 12:01:11;;;;;;;7.40;5.18;;;;;;;1.60;86.58;96496.88;5134369;27;20446;-62
2023/01/26 12:03:46;;;;;;;9.93;5.85;;;;;;;1.57;86.61;96483.16;5134218;27;20128;-63
2023/01/26 12:06:18;;;;;;;9.38;5.85;;;;;;;1.47;86.54;96480.59;5134176;27;20047;-62
2023/01/26 12:08:51;;;;;;;12.45;7.38;;;;;;;1.48;87.37;96471.13;5134150;27;20090;-63
2023/01/26 12:11:24;;;;;;;10.68;6.63;;;;;;;1.44;88.07;96456.56;5134315;27;20047;-61
2023/01/26 12:14:16;;;;;;;7.85;5.60;;;;;;;1.38;88.54;96453.13;5134208;27;20449;-63
2023/01/26 12:17:25;;;;;;;8.50;6.40;;;;;;;1.32;89.28;96450.53;5122227;27;20043;-61
2023/01/26 12:20:03;;;;;;;7.97;5.68;;;;;;;1.32;89.82;96440.22;5030668;28;20590;-63
2023/01/26 12:22:34;;;;;;;8.32;5.97;;;;;;;1.32;90.53;96435.06;5126120;28;20508;-62
2023/01/26 12:25:09;;;;;;;8.85;5.72;;;;;;;1.33;90.50;96434.25;5133884;28;20130;-63
2023/01/26 12:27:43;;;;;;;6.90;5.40;;;;;;;1.26;90.76;96435.09;5134014;28;20079;-62
2023/01/26 12:30:24;;;;;;;7.78;5.88;;;;;;;1.28;91.47;96430.81;5133977;28;20496;-63
2023/01/26 12:32:52;;;;;;;7.28;5.03;;;;;;;1.29;91.47;96426.50;5134022;28;20064;-61
2023/01/26 12:35:44;;;;;;;7.20;5.40;;;;;;;1.25;91.78;96418.78;5133957;28;20059;-62
2023/01/26 12:38:18;;;;;;;8.40;6.00;;;;;;;1.26;91.82;96420.50;5133891;28;20074;-63
2023/01/26 12:40:58;;;;;;;6.78;5.22;;;;;;;1.25;92.02;96417.91;5133787;28;20050;-63
2023/01/26 12:43:43;;;;;;;8.60;6.18;;;;;;;1.24;92.33;96426.53;5133772;28;20500;-63
2023/01/26 12:46:12;;;;;;;9.35;5.38;;;;;;;1.26;92.54;96423.06;5133666;28;20090;-63